Time;durP1;ratioP1;P1;durP2;ratioP2;P2;SDS_P1;SDS_P2;PMS_P1;PMS_P2;Temp;Humidity;BMP_temperature;BMP_pressure;BME280_temperature;BME280_humidity;BME280_pressure;Samples;Min_cycle;Max_cycle;Signal;HPM_P1;HPM_P2
2021/05/03 00:00:43;;;;;;;8.73;4.58;;;;;;;4.02;100.00;100741.30;1829567;77;21136;-81
2021/05/03 00:03:12;;;;;;;9.48;4.67;;;;;;;4.02;100.00;100741.71;1829290;77;21195;-82
2021/05/03 00:05:45;;;;;;;8.08;4.87;;;;;;;3.99;100.00;100735.92;1828735;78;21172;-83
2021/05/03 00:08:08;;;;;;;8.15;4.60;;;;;;;3.99;100.00;100748.05;1828842;77;21131;-82
2021/05/03 00:10:35;;;;;;;10.18;5.17;;;;;;;3.98;100.00;100745.87;1828993;77;21225;-82
2021/05/03 00:13:02;;;;;;;8.68;4.87;;;;;;;3.97;100.00;100745.78;1829482;77;21179;-82
2021/05/03 00:15:30;;;;;;;8.23;4.05;;;;;;;3.97;100.00;100746.66;1829287;78;21832;-82
2021/05/03 00:17:58;;;;;;;8.38;3.92;;;;;;;3.97;100.00;100745.78;1829245;77;21100;-82
2021/05/03 00:20:26;;;;;;;8.75;4.22;;;;;;;3.97;100.00;100747.08;1829394;78;21591;-84
2021/05/03 00:22:53;;;;;;;13.30;4.20;;;;;;;3.92;100.00;100746.83;1829451;77;21158;-83
2021/05/03 00:25:20;;;;;;;11.03;4.15;;;;;;;3.92;100.00;100747.25;1829402;78;21135;-84
2021/05/03 00:27:47;;;;;;;11.60;4.25;;;;;;;3.93;100.00;100747.75;1829577;77;22922;-85
2021/05/03 00:30:15;;;;;;;9.10;3.75;;;;;;;3.94;100.00;100747.83;1829427;78;21138;-83
2021/05/03 00:32:44;;;;;;;7.00;3.80;;;;;;;3.97;100.00;100753.59;1815400;78;21155;-83
2021/05/03 00:35:12;;;;;;;7.67;3.50;;;;;;;3.98;100.00;100754.98;1829196;77;21199;-83
2021/05/03 00:37:39;;;;;;;9.95;3.67;;;;;;;3.95;100.00;100759.13;1810112;78;21179;-81
2021/05/03 00:40:07;;;;;;;9.53;3.50;;;;;;;3.93;100.00;100756.45;1828680;78;22845;-83
2021/05/03 00:42:35;;;;;;;6.53;3.45;;;;;;;3.94;100.00;100763.45;1828393;78;21710;-83
2021/05/03 00:45:13;;;;;;;10.08;3.90;;;;;;;3.96;100.00;100758.30;1828454;78;21214;-83
2021/05/03 00:47:41;;;;;;;13.43;3.87;;;;;;;3.94;100.00;100768.66;1828597;78;21214;-83
2021/05/03 00:50:10;;;;;;;9.53;4.53;;;;;;;3.96;100.00;100763.13;1828626;78;21587;-83
2021/05/03 00:52:37;;;;;;;14.18;5.50;;;;;;;3.97;100.00;100764.02;1828510;78;21805;-83
2021/05/03 00:55:06;;;;;;;8.55;5.30;;;;;;;3.98;100.00;100767.09;1828452;78;21238;-83
2021/05/03 00:57:33;;;;;;;9.20;4.35;;;;;;;3.97;100.00;100770.11;1828460;78;21195;-83
2021/05/03 01:00:01;;;;;;;11.48;5.00;;;;;;;3.98;100.00;100773.21;1828586;78;21172;-83
2021/05/03 01:02:28;;;;;;;11.83;5.33;;;;;;;3.97;100.00;100764.02;1809955;78;21590;-83
2021/05/03 01:04:55;;;;;;;11.12;5.72;;;;;;;3.97;100.00;100775.73;1828667;78;21766;-83
2021/05/03 01:07:23;;;;;;;14.25;5.17;;;;;;;3.98;100.00;100774.52;1828397;78;21167;-82
2021/05/03 01:09:50;;;;;;;16.87;6.17;;;;;;;3.97;100.00;100783.13;1828593;78;21175;-82
2021/05/03 01:12:17;;;;;;;14.18;5.20;;;;;;;3.98;100.00;100787.92;1828648;78;21219;-83
2021/05/03 01:14:44;;;;;;;13.50;5.65;;;;;;;3.94;100.00;100775.17;1828704;78;21123;-83
2021/05/03 01:17:11;;;;;;;18.07;6.03;;;;;;;3.93;100.00;100785.09;1828607;78;22140;-82
2021/05/03 01:19:38;;;;;;;13.53;5.80;;;;;;;3.93;100.00;100779.00;1828347;78;21207;-82
2021/05/03 01:22:06;;;;;;;12.10;5.20;;;;;;;3.93;100.00;100780.30;1828436;77;21127;-82
2021/05/03 01:24:33;;;;;;;14.10;5.22;;;;;;;3.93;100.00;100782.48;1828265;78;21140;-82
2021/05/03 01:27:00;;;;;;;14.47;5.78;;;;;;;3.92;100.00;100783.70;1828509;77;21199;-82
2021/05/03 01:29:28;;;;;;;11.38;5.00;;;;;;;3.90;100.00;100786.22;1828477;78;21876;-82
2021/05/03 01:31:55;;;;;;;15.78;5.85;;;;;;;3.91;100.00;100789.75;1828372;78;21559;-83
2021/05/03 01:34:22;;;;;;;14.00;5.40;;;;;;;3.93;100.00;100785.51;1828611;78;21501;-83
2021/05/03 01:36:49;;;;;;;8.80;4.55;;;;;;;3.91;100.00;100788.02;1828505;77;21275;-83
2021/05/03 01:39:17;;;;;;;10.75;4.87;;;;;;;3.92;100.00;100791.09;1828498;78;21140;-83
2021/05/03 01:41:45;;;;;;;15.85;5.22;;;;;;;3.93;100.00;100794.62;1828529;78;22909;-82
2021/05/03 01:44:18;;;;;;;6.65;3.60;;;;;;;3.94;100.00;100791.19;1828282;77;21606;-82
2021/05/03 01:46:45;;;;;;;6.53;3.30;;;;;;;3.97;100.00;100797.45;1828478;78;21121;-83
2021/05/03 01:49:12;;;;;;;9.05;4.22;;;;;;;3.95;100.00;100789.97;1783489;78;21124;-83
2021/05/03 01:51:40;;;;;;;9.95;4.03;;;;;;;3.96;100.00;100786.95;1828412;78;21235;-82
2021/05/03 01:54:07;;;;;;;8.65;4.12;;;;;;;3.96;100.00;100793.08;1828246;78;21925;-82
2021/05/03 01:56:34;;;;;;;8.40;3.30;;;;;;;3.95;100.00;100793.88;1828281;78;21132;-82
2021/05/03 01:59:06;;;;;;;6.25;2.85;;;;;;;3.94;100.00;100793.41;1828419;77;21195;-82
2021/05/03 02:01:36;;;;;;;7.80;3.50;;;;;;;3.95;100.00;100798.20;1810058;78;21438;-82
2021/05/03 02:04:04;;;;;;;9.05;3.50;;;;;;;3.92;100.00;100798.91;1828374;78;21195;-82
2021/05/03 02:06:31;;;;;;;9.28;3.15;;;;;;;3.94;100.00;100796.02;1828287;78;22853;-81
2021/05/03 02:08:58;;;;;;;8.18;2.75;;;;;;;3.95;100.00;100802.98;1828409;78;21122;-82
2021/05/03 02:11:25;;;;;;;7.00;3.05;;;;;;;3.94;100.00;100799.92;1828343;77;21184;-81
2021/05/03 02:13:52;;;;;;;8.28;2.75;;;;;;;3.95;100.00;100800.39;1828296;78;21594;-82
2021/05/03 02:16:20;;;;;;;8.73;3.17;;;;;;;3.93;100.00;100803.32;1828299;78;21148;-82
2021/05/03 02:18:47;;;;;;;5.47;3.30;;;;;;;3.94;100.00;100805.12;1828464;78;21878;-82
2021/05/03 02:21:14;;;;;;;5.95;3.27;;;;;;;3.96;100.00;100806.09;1828279;77;21227;-83
2021/05/03 02:23:41;;;;;;;9.13;2.50;;;;;;;3.97;100.00;100803.08;1828318;78;21175;-81
2021/05/03 02:26:08;;;;;;;11.22;3.30;;;;;;;3.98;100.00;100804.47;1828232;77;21171;-82
2021/05/03 02:28:36;;;;;;;5.45;2.83;;;;;;;3.99;100.00;100802.33;1828293;77;21250;-82
2021/05/03 02:31:03;;;;;;;8.20;2.77;;;;;;;4.02;100.00;100806.83;1828375;78;21872;-82
2021/05/03 02:33:30;;;;;;;4.90;2.65;;;;;;;4.03;100.00;100812.09;1828236;78;21202;-82
2021/05/03 02:35:57;;;;;;;6.28;2.83;;;;;;;4.05;100.00;100809.19;1828346;78;21503;-81
2021/05/03 02:38:25;;;;;;;5.75;2.98;;;;;;;4.11;100.00;100808.99;1828444;77;21195;-83
2021/05/03 02:40:52;;;;;;;9.08;3.20;;;;;;;4.17;100.00;100808.91;1828708;78;21183;-83
2021/05/03 02:43:19;;;;;;;8.28;2.83;;;;;;;4.21;100.00;100808.67;1828775;78;21782;-82
2021/05/03 02:45:47;;;;;;;9.23;3.22;;;;;;;4.25;100.00;100814.52;1828279;78;21196;-81
2021/05/03 02:48:14;;;;;;;6.97;2.70;;;;;;;4.29;100.00;100816.45;1828323;77;21227;-82
2021/05/03 02:50:41;;;;;;;8.98;3.30;;;;;;;4.33;100.00;100820.13;1828425;77;21214;-82
2021/05/03 02:53:08;;;;;;;7.55;3.00;;;;;;;4.35;100.00;100818.06;1828284;78;21590;-82
2021/05/03 02:55:35;;;;;;;6.53;2.80;;;;;;;4.37;100.00;100811.22;1828524;78;21882;-82
2021/05/03 02:58:03;;;;;;;10.48;3.00;;;;;;;4.43;100.00;100817.15;1828498;78;21175;-81
2021/05/03 03:00:32;;;;;;;8.93;3.05;;;;;;;4.45;100.00;100814.24;1828514;78;21567;-82
2021/05/03 03:03:00;;;;;;;4.17;2.52;;;;;;;4.49;100.00;100816.18;1828559;78;21049;-82
2021/05/03 03:05:27;;;;;;;6.42;2.77;;;;;;;4.52;100.00;100813.70;1828546;78;21155;-83
2021/05/03 03:07:57;;;;;;;5.42;3.08;;;;;;;4.53;100.00;100822.03;1828513;78;22309;-83
2021/05/03 03:10:23;;;;;;;5.00;2.70;;;;;;;4.54;100.00;100819.89;1828416;78;21219;-82
2021/05/03 03:12:51;;;;;;;7.75;2.62;;;;;;;4.58;100.00;100818.33;1828637;78;21493;-81
2021/05/03 03:15:19;;;;;;;6.58;2.87;;;;;;;4.60;100.00;100818.92;1828324;78;21741;-82
2021/05/03 03:17:47;;;;;;;4.30;2.25;;;;;;;4.62;100.00;100826.41;1828616;78;21226;-82
2021/05/03 03:20:15;;;;;;;3.05;2.37;;;;;;;4.64;100.00;100822.16;1828473;77;21680;-82
2021/05/03 03:22:42;;;;;;;5.15;2.33;;;;;;;4.69;100.00;100828.89;1828565;78;21168;-82
2021/05/03 03:25:10;;;;;;;4.90;2.60;;;;;;;4.72;100.00;100827.75;1828605;78;21116;-81
2021/05/03 03:27:37;;;;;;;5.45;2.50;;;;;;;4.75;100.00;100836.13;1828004;78;21204;-81
2021/05/03 03:30:06;;;;;;;7.03;2.58;;;;;;;4.78;100.00;100828.46;1828465;78;21147;-82
2021/05/03 03:32:34;;;;;;;7.92;2.33;;;;;;;4.81;100.00;100828.20;1828059;78;21882;-82
2021/05/03 03:35:02;;;;;;;6.17;2.35;;;;;;;4.84;100.00;100833.59;1828377;78;21644;-82
2021/05/03 03:37:29;;;;;;;4.17;2.30;;;;;;;4.86;100.00;100829.34;1828689;77;21601;-82
2021/05/03 03:39:56;;;;;;;5.65;2.20;;;;;;;4.93;100.00;100834.42;1829455;78;21553;-82
2021/05/03 03:42:23;;;;;;;6.30;2.52;;;;;;;4.98;99.69;100834.67;1829388;78;21204;-81
2021/05/03 03:44:50;;;;;;;5.40;2.25;;;;;;;5.01;99.14;100837.02;1829367;78;21509;-81
2021/05/03 03:47:18;;;;;;;4.20;1.92;;;;;;;5.05;98.41;100840.26;1828948;78;21741;-82
2021/05/03 03:49:45;;;;;;;3.62;2.08;;;;;;;5.07;97.76;100842.95;1829319;78;21135;-81
2021/05/03 03:52:12;;;;;;;3.15;2.20;;;;;;;5.10;97.72;100846.10;1829216;78;21195;-81
2021/05/03 03:54:39;;;;;;;7.35;2.30;;;;;;;5.14;97.35;100845.00;1829235;77;21202;-81
2021/05/03 03:57:06;;;;;;;3.27;2.05;;;;;;;5.14;96.92;100854.55;1829279;77;21808;-81
2021/05/03 03:59:38;;;;;;;3.37;2.22;;;;;;;5.18;96.71;100844.36;1829196;78;21561;-81
2021/05/03 04:02:02;;;;;;;8.28;2.20;;;;;;;5.22;96.32;100848.02;1829142;77;21220;-83
2021/05/03 04:04:32;;;;;;;7.28;2.37;;;;;;;5.26;95.96;100847.33;1829299;78;21147;-82
2021/05/03 04:07:09;;;;;;;6.00;2.50;;;;;;;5.29;95.62;100847.88;1815499;78;21124;-82
2021/05/03 04:09:40;;;;;;;3.90;2.50;;;;;;;5.31;95.26;100854.06;1828910;77;22934;-81
2021/05/03 04:28:12;;;;;;;5.58;2.52;;;;;;;5.72;92.20;100866.45;1888590;76;22206;-82
2021/05/03 04:30:39;;;;;;;4.62;2.20;;;;;;;5.73;91.92;100865.64;1856409;76;21612;-82
2021/05/03 04:33:06;;;;;;;7.72;2.05;;;;;;;5.80;91.70;100877.25;1856467;77;21943;-82
2021/05/03 04:35:33;;;;;;;3.45;1.72;;;;;;;5.88;91.40;100871.98;1856259;77;21160;-82
2021/05/03 04:38:00;;;;;;;3.47;2.30;;;;;;;5.96;90.67;100871.95;1856391;77;21243;-81
2021/05/03 04:40:28;;;;;;;5.47;2.75;;;;;;;6.05;90.64;100874.52;1856560;77;21135;-81
2021/05/03 04:42:55;;;;;;;3.50;2.30;;;;;;;6.13;90.18;100892.31;1856640;77;21110;-82
2021/05/03 04:45:22;;;;;;;4.35;2.27;;;;;;;6.20;89.77;100883.03;1856383;77;22841;-81
2021/05/03 04:47:49;;;;;;;4.50;2.15;;;;;;;6.30;89.25;100882.61;1856362;77;21187;-81
2021/05/03 04:50:19;;;;;;;3.20;2.05;;;;;;;6.42;88.76;100892.31;1856118;76;21202;-81
2021/05/03 04:52:46;;;;;;;3.00;2.17;;;;;;;6.53;88.56;100896.71;1856160;77;21689;-80
2021/05/03 04:55:13;;;;;;;4.67;2.15;;;;;;;6.63;88.24;100899.30;1856389;77;21689;-81
2021/05/03 04:57:40;;;;;;;5.15;2.30;;;;;;;6.74;87.85;100901.97;1856361;77;22935;-81
2021/05/03 05:00:09;;;;;;;3.10;2.10;;;;;;;6.85;86.88;100908.06;1856497;76;21171;-80
2021/05/03 05:02:36;;;;;;;4.28;2.55;;;;;;;6.93;86.84;100904.06;1856396;77;21174;-81
2021/05/03 05:05:06;;;;;;;5.70;2.25;;;;;;;7.02;86.73;100910.99;1856342;77;21210;-81
2021/05/03 05:07:34;;;;;;;3.30;2.15;;;;;;;7.15;86.80;100911.06;1856480;77;21138;-81
2021/05/03 05:10:01;;;;;;;6.33;2.47;;;;;;;7.27;86.67;100913.31;1856483;77;22860;-81
2021/05/03 05:12:28;;;;;;;4.75;2.20;;;;;;;7.37;85.92;100919.39;1856315;77;21231;-81
2021/05/03 05:14:55;;;;;;;4.42;2.85;;;;;;;7.40;85.25;100923.45;1856208;77;21712;-80
2021/05/03 05:17:25;;;;;;;4.78;2.75;;;;;;;7.45;85.16;100924.55;1856015;77;21688;-82
2021/05/03 05:19:51;;;;;;;6.33;1.75;;;;;;;7.49;84.98;100919.90;1856079;77;21475;-82
2021/05/03 05:22:19;;;;;;;5.33;2.47;;;;;;;7.53;84.20;100928.34;1856072;77;22748;-81
2021/05/03 05:24:46;;;;;;;5.35;2.15;;;;;;;7.58;84.52;100921.97;1856120;77;21122;-85
2021/05/03 05:27:14;;;;;;;4.25;2.20;;;;;;;7.64;84.30;100921.32;1857627;77;21604;-84
2021/05/03 05:29:41;;;;;;;4.33;1.92;;;;;;;7.69;84.06;100917.16;1859788;77;21182;-84
2021/05/03 05:32:08;;;;;;;3.55;1.87;;;;;;;7.79;84.27;100918.02;1859965;77;21217;-87
2021/05/03 05:34:40;;;;;;;3.92;2.00;;;;;;;7.98;84.56;100920.92;1859746;77;21241;-84
2021/05/03 05:37:07;;;;;;;3.27;2.12;;;;;;;8.16;84.23;100915.47;1859651;76;21220;-81
2021/05/03 05:39:35;;;;;;;6.03;2.40;;;;;;;8.30;83.69;100918.19;1858895;77;21142;-85
2021/05/03 05:42:02;;;;;;;4.60;2.45;;;;;;;8.42;83.12;100923.45;1859602;77;21174;-86
2021/05/03 05:44:29;;;;;;;4.75;2.70;;;;;;;8.56;83.17;100924.85;1858965;77;21190;-85
2021/05/03 05:46:56;;;;;;;4.75;3.45;;;;;;;8.79;83.05;100915.16;1859103;76;21878;-85
2021/05/03 05:49:23;;;;;;;6.58;2.98;;;;;;;9.06;82.92;100920.45;1858826;77;21167;-85
2021/05/03 05:51:50;;;;;;;3.62;2.37;;;;;;;9.31;82.40;100927.42;1858854;77;21179;-85
2021/05/03 05:54:18;;;;;;;5.28;2.95;;;;;;;9.46;81.19;100929.66;1857164;77;21620;-85
2021/05/03 05:56:53;;;;;;;5.20;2.77;;;;;;;9.64;81.19;100930.66;1858653;77;21138;-85
2021/05/03 05:59:43;;;;;;;4.95;2.98;;;;;;;9.78;80.26;100927.56;1856879;77;21173;-85
2021/05/03 06:02:35;;;;;;;4.47;2.40;;;;;;;9.88;79.83;100927.02;1822400;77;21298;-86
2021/05/03 06:05:02;;;;;;;4.62;2.25;;;;;;;10.01;78.27;100942.32;1858731;77;21185;-84
2021/05/03 06:07:39;;;;;;;2.10;1.90;;;;;;;9.95;77.76;100931.63;1858287;76;21216;-85
2021/05/03 06:10:23;;;;;;;3.35;2.30;;;;;;;9.89;77.14;100932.73;1831534;77;21195;-84
2021/05/03 06:13:08;;;;;;;3.22;1.72;;;;;;;9.92;76.80;100939.41;1861395;75;21798;-85
2021/05/03 06:15:41;;;;;;;1.67;1.50;;;;;;;9.78;75.11;100936.36;1767228;78;21597;-85
2021/05/03 06:18:11;;;;;;;4.25;2.25;;;;;;;9.71;75.23;100935.70;1769541;80;21198;-84
2021/05/03 06:21:01;;;;;;;2.92;2.10;;;;;;;9.68;75.26;100936.47;1817590;78;24229;-84
2021/05/03 06:23:36;;;;;;;2.08;1.87;;;;;;;9.65;75.43;100935.52;1790405;80;21611;-86
2021/05/03 06:26:03;;;;;;;4.33;1.77;;;;;;;9.69;74.73;100936.08;1790823;80;21869;-86
2021/05/03 06:28:44;;;;;;;3.20;2.10;;;;;;;9.69;74.82;100930.81;1790205;80;21239;-85
2021/05/03 06:31:30;;;;;;;1.95;1.52;;;;;;;9.72;74.80;100944.03;1790461;80;21191;-84
2021/05/03 06:33:59;;;;;;;6.83;1.70;;;;;;;9.69;73.73;100942.64;1790589;80;21582;-84
2021/05/03 06:36:45;;;;;;;3.20;1.80;;;;;;;9.66;73.65;100933.34;1790870;80;21195;-84
2021/05/03 06:39:17;;;;;;;3.47;1.98;;;;;;;9.68;73.24;100943.04;1790417;80;21943;-85
2021/05/03 06:55:47;;;;;;;3.58;2.33;;;;;;;10.08;72.08;100961.82;1838927;77;26248;-83
2021/05/03 06:58:16;;;;;;;5.15;2.67;;;;;;;10.09;71.80;100970.16;1750765;81;21218;-85
2021/05/03 07:00:43;;;;;;;2.90;1.85;;;;;;;10.15;71.51;100972.09;1755737;81;21896;-84
2021/05/03 07:03:12;;;;;;;2.42;1.87;;;;;;;10.15;71.10;100970.34;1752089;81;21155;-84
2021/05/03 07:05:39;;;;;;;4.47;2.12;;;;;;;10.25;71.39;100978.11;1755805;81;21211;-85
2021/05/03 07:08:08;;;;;;;2.87;2.35;;;;;;;10.36;70.71;100971.46;1752045;80;21665;-82
2021/05/03 07:10:38;;;;;;;3.50;1.80;;;;;;;10.37;70.24;100970.59;1752990;80;21212;-80
2021/05/03 07:13:05;;;;;;;2.85;2.02;;;;;;;10.47;70.03;100970.44;1781498;79;21890;-83
2021/05/03 07:15:32;;;;;;;3.35;2.08;;;;;;;10.59;69.97;100979.13;1756082;81;21185;-82
2021/05/03 07:17:59;;;;;;;6.53;2.37;;;;;;;10.72;69.63;100981.66;1750773;80;21172;-82
2021/05/03 07:20:26;;;;;;;2.37;1.70;;;;;;;10.79;69.17;100976.64;1739042;82;21714;-78
2021/05/03 07:22:53;;;;;;;4.60;2.52;;;;;;;10.92;68.36;100974.31;1738987;82;21243;-80
2021/05/03 07:25:20;;;;;;;7.10;5.90;;;;;;;10.99;68.46;100973.64;1739081;82;21876;-78
2021/05/03 07:27:47;;;;;;;2.65;2.42;;;;;;;11.13;68.64;100976.23;1716417;81;21263;-79
2021/05/03 07:30:15;;;;;;;5.28;3.40;;;;;;;11.29;68.43;100981.45;1733398;81;21147;-79
2021/05/03 07:35:20;;;;;;;5.72;2.00;;;;;;;11.63;67.61;100973.06;1809919;78;21991;-80
2021/05/03 07:37:47;;;;;;;4.05;2.40;;;;;;;11.71;67.16;100983.36;1795236;79;21203;-80
2021/05/03 07:40:14;;;;;;;3.15;2.12;;;;;;;11.85;67.32;100976.68;1756286;81;21892;-77
2021/05/03 07:42:45;;;;;;;3.05;2.42;;;;;;;11.97;66.79;100980.48;1756290;81;21675;-77
2021/05/03 07:45:14;;;;;;;3.22;2.70;;;;;;;12.09;66.28;100994.38;1756140;80;21235;-77
2021/05/03 07:47:43;;;;;;;5.35;2.67;;;;;;;12.13;65.72;100988.34;1756086;80;21195;-77
2021/05/03 07:50:13;;;;;;;5.42;4.45;;;;;;;11.99;63.38;100988.01;1756253;81;21203;-77
2021/05/03 07:52:40;;;;;;;5.42;4.15;;;;;;;11.89;64.05;100988.63;1756205;81;22849;-77
2021/05/03 07:55:08;;;;;;;4.90;3.77;;;;;;;11.99;64.77;100997.23;1756128;81;21208;-78
2021/05/03 07:57:35;;;;;;;4.80;2.10;;;;;;;12.17;65.07;100996.78;1756160;80;21200;-79
2021/05/03 08:00:03;;;;;;;3.42;2.35;;;;;;;12.21;63.99;101002.59;1756226;81;21223;-80
2021/05/03 08:02:30;;;;;;;3.50;2.70;;;;;;;12.14;64.18;101005.94;1756317;81;21275;-81
2021/05/03 08:04:57;;;;;;;3.08;2.25;;;;;;;12.31;64.75;101008.52;1756325;81;21943;-79
2021/05/03 08:07:24;;;;;;;4.70;2.50;;;;;;;12.48;64.40;101006.27;1756143;81;21690;-82
2021/05/03 08:09:55;;;;;;;4.00;2.20;;;;;;;12.46;63.54;101006.64;1756239;80;21236;-82
2021/05/03 08:12:22;;;;;;;3.25;1.82;;;;;;;12.42;63.14;101024.16;1756141;81;21499;-82
2021/05/03 08:14:50;;;;;;;3.27;2.33;;;;;;;12.31;62.68;101009.84;1756340;81;21228;-82
2021/05/03 08:17:18;;;;;;;3.37;2.33;;;;;;;12.15;62.91;101001.14;1756186;81;21887;-82
2021/05/03 08:19:48;;;;;;;3.52;2.30;;;;;;;12.11;63.06;101016.45;1756069;81;21216;-82
2021/05/03 08:22:15;;;;;;;3.05;2.15;;;;;;;12.17;63.77;101020.53;1756016;81;21212;-82
2021/05/03 08:24:42;;;;;;;4.28;2.30;;;;;;;12.25;63.57;101015.88;1756190;81;21239;-82
2021/05/03 08:27:17;;;;;;;3.95;2.33;;;;;;;12.41;63.85;101019.76;1755765;81;21216;-83
2021/05/03 08:32:37;;;;;;;4.75;2.95;;;;;;;12.54;63.40;101033.23;1837754;77;24072;-84
2021/05/03 08:35:06;;;;;;;4.53;2.62;;;;;;;12.55;63.27;101021.36;1818785;78;21096;-84
2021/05/03 08:37:33;;;;;;;4.12;2.95;;;;;;;12.56;61.88;101042.08;1819245;78;21944;-85
2021/05/03 08:40:01;;;;;;;2.47;1.98;;;;;;;12.31;62.23;101039.31;1787394;78;21893;-84
2021/05/03 08:42:28;;;;;;;4.15;2.22;;;;;;;12.22;62.14;101031.66;1819086;78;21167;-84
2021/05/03 08:44:57;;;;;;;3.47;2.87;;;;;;;12.32;62.72;101031.87;1819197;78;21329;-84
2021/05/03 08:47:32;;;;;;;4.50;2.22;;;;;;;12.36;62.10;101028.44;1819188;78;21496;-83
2021/05/03 08:50:03;;;;;;;3.35;1.70;;;;;;;12.36;61.80;101024.03;1763604;78;21897;-83
2021/05/03 08:52:37;;;;;;;2.58;1.92;;;;;;;12.46;61.65;101023.80;1817269;78;21235;-84
2021/05/03 08:54:56;;;;;;;2.27;1.55;;;;;;;12.53;61.36;101030.12;1816046;78;21199;-84
2021/05/03 08:57:22;;;;;;;2.25;1.80;;;;;;;12.71;61.55;101028.31;1819230;78;21188;-83
2021/05/03 08:59:49;;;;;;;6.47;3.67;;;;;;;12.83;60.98;101036.03;1803893;78;21229;-84
2021/05/03 09:02:16;;;;;;;6.75;4.45;;;;;;;12.82;60.54;101036.91;1786986;80;21950;-83
2021/05/03 09:04:43;;;;;;;7.25;3.67;;;;;;;12.86;59.79;101035.22;1786680;80;21177;-84
2021/05/03 09:07:15;;;;;;;3.33;2.62;;;;;;;12.78;59.57;101036.80;1787019;80;21197;-84
2021/05/03 09:09:45;;;;;;;5.12;2.55;;;;;;;12.78;58.43;101040.76;1786701;80;21687;-84
2021/05/03 09:12:19;;;;;;;3.35;2.27;;;;;;;12.71;58.89;101033.16;1787028;80;21221;-84
2021/05/03 09:15:02;;;;;;;4.35;2.77;;;;;;;12.76;58.58;101030.59;1786935;80;22532;-84
2021/05/03 09:17:36;;;;;;;3.12;2.17;;;;;;;12.77;58.70;101024.47;1786873;80;21224;-84
2021/05/03 09:20:14;;;;;;;3.47;2.10;;;;;;;12.84;57.97;101035.62;1786427;80;21623;-84
2021/05/03 09:25:38;;;;;;;3.35;2.65;;;;;;;12.49;56.63;101037.08;1810322;78;23163;-83
2021/05/03 09:28:19;;;;;;;2.45;1.82;;;;;;;12.43;57.42;101036.95;1796349;79;21172;-83
2021/05/03 09:30:59;;;;;;;3.75;2.22;;;;;;;12.59;57.64;101035.12;1796194;79;21876;-82
2021/05/03 09:33:31;;;;;;;3.33;1.92;;;;;;;12.65;56.51;101034.36;1795994;79;21564;-83
2021/05/03 09:36:05;;;;;;;4.50;2.22;;;;;;;12.72;56.99;101038.00;1796284;79;21151;-83
2021/05/03 09:38:40;;;;;;;2.50;1.90;;;;;;;12.94;56.87;101033.61;1796372;79;21195;-83
2021/05/03 09:41:25;;;;;;;4.28;1.65;;;;;;;13.20;56.83;101042.48;1796309;79;21622;-83
2021/05/03 09:46:47;;;;;;;3.70;2.12;;;;;;;13.51;55.30;101034.69;1810294;78;22857;-82
2021/05/03 09:49:18;;;;;;;2.10;1.90;;;;;;;13.53;55.37;101036.05;1796410;79;21250;-85
2021/05/03 09:51:50;;;;;;;2.62;1.70;;;;;;;13.55;54.83;101034.31;1796196;79;22794;-84
2021/05/03 09:54:28;;;;;;;10.45;8.53;;;;;;;13.40;54.07;101036.25;1796272;79;21284;-82
2021/05/03 09:57:11;;;;;;;16.42;13.30;;;;;;;13.26;54.75;101035.98;1796264;79;21211;-82
2021/05/03 09:59:49;;;;;;;12.33;9.68;;;;;;;13.16;54.75;101034.05;1796190;79;21235;-82
2021/05/03 10:02:29;;;;;;;4.35;3.70;;;;;;;13.12;54.92;101033.09;1796250;79;21246;-82
2021/05/03 10:05:10;;;;;;;8.13;3.87;;;;;;;13.12;55.43;101030.86;1796214;79;21892;-84
2021/05/03 10:07:41;;;;;;;6.03;2.67;;;;;;;13.13;54.97;101034.86;1795973;79;21243;-82
2021/05/03 10:10:19;;;;;;;3.60;2.52;;;;;;;13.02;54.50;101024.07;1796181;79;21238;-82
2021/05/03 10:12:42;;;;;;;2.80;1.95;;;;;;;13.00;54.42;101032.40;1794249;79;21219;-85
2021/05/03 10:15:12;;;;;;;2.27;1.90;;;;;;;13.09;54.37;101029.50;1796066;79;21622;-85
2021/05/03 10:17:40;;;;;;;2.10;1.65;;;;;;;13.31;54.71;101027.75;1795959;79;23707;-84
2021/05/03 10:20:16;;;;;;;2.95;1.75;;;;;;;13.30;53.14;101025.03;1796144;79;21234;-85
2021/05/03 10:22:45;;;;;;;3.25;1.75;;;;;;;13.32;52.94;101020.70;1795907;79;21143;-85
2021/05/03 10:25:14;;;;;;;4.45;2.25;;;;;;;13.34;53.34;101019.84;1796151;79;21598;-82
2021/05/03 10:27:43;;;;;;;4.37;1.90;;;;;;;13.48;53.48;101023.20;1762867;79;21698;-83
2021/05/03 10:30:15;;;;;;;2.83;2.00;;;;;;;13.60;53.46;101018.98;1796207;79;21958;-83
2021/05/03 10:32:44;;;;;;;2.20;1.82;;;;;;;13.71;52.88;101020.94;1796020;79;21204;-84
2021/05/03 10:35:27;;;;;;;3.58;1.67;;;;;;;13.70;52.45;101024.43;1796068;79;21147;-82
2021/05/03 10:37:55;;;;;;;2.50;1.67;;;;;;;13.56;51.77;101024.21;1796336;79;21705;-83
2021/05/03 10:40:30;;;;;;;5.25;2.20;;;;;;;13.14;50.44;101025.20;1796095;79;21699;-83
2021/05/03 10:43:14;;;;;;;6.00;3.15;;;;;;;12.85;52.27;101025.50;1796174;79;22837;-83
2021/05/03 10:48:52;;;;;;;3.70;2.60;;;;;;;13.27;53.31;101020.59;1787538;80;21180;-83
2021/05/03 10:51:45;;;;;;;3.72;2.02;;;;;;;13.63;53.23;101019.48;1787506;80;21175;-83
2021/05/03 10:57:08;;;;;;;3.80;1.95;;;;;;;13.96;51.79;101011.62;1787579;80;21888;-83
2021/05/03 10:59:51;;;;;;;2.95;1.90;;;;;;;13.99;51.29;101006.38;1785998;80;21200;-83
2021/05/03 11:02:25;;;;;;;2.77;1.82;;;;;;;14.07;51.38;101010.47;1786804;80;22363;-84
2021/05/03 11:05:23;;;;;;;3.80;2.10;;;;;;;14.40;51.36;101010.06;1787162;80;21152;-84
2021/05/03 11:08:10;;;;;;;2.17;1.92;;;;;;;14.61;51.08;101005.95;1787262;80;21148;-83
2021/05/03 11:11:08;;;;;;;2.87;2.10;;;;;;;14.56;50.35;101009.81;1787012;80;21885;-83
2021/05/03 11:13:41;;;;;;;4.33;2.40;;;;;;;14.41;50.57;101011.82;1714814;83;21212;-83
2021/05/03 11:16:32;;;;;;;4.40;2.33;;;;;;;14.33;50.70;101015.69;1714995;83;21679;-83
2021/05/03 11:19:04;;;;;;;4.00;2.37;;;;;;;14.17;50.81;101012.36;1714863;81;21164;-83
2021/05/03 11:21:49;;;;;;;3.45;2.40;;;;;;;14.01;50.96;101007.29;1714489;83;21702;-83
2021/05/03 11:24:26;;;;;;;3.02;2.40;;;;;;;13.85;51.02;101007.91;1714521;83;21903;-84
2021/05/03 11:30:10;;;;;;;3.45;2.25;;;;;;;13.43;50.10;101006.36;1809805;78;22818;-84
2021/05/03 11:32:34;;;;;;;3.20;2.40;;;;;;;13.13;50.12;101012.83;1793822;79;21223;-84
2021/05/03 11:35:08;;;;;;;2.75;2.25;;;;;;;12.98;50.21;101005.06;1796221;79;21669;-84
2021/05/03 11:37:55;;;;;;;3.33;2.37;;;;;;;12.81;50.34;101002.53;1794596;79;21171;-83
2021/05/03 11:43:04;;;;;;;6.70;3.58;;;;;;;12.52;50.67;101001.92;1772088;78;21169;-84
2021/05/03 11:45:28;;;;;;;4.85;3.33;;;;;;;12.62;50.81;100999.52;1761654;81;21189;-84
2021/05/03 11:47:55;;;;;;;3.05;2.12;;;;;;;12.66;50.66;100996.50;1764364;81;22872;-85
2021/05/03 11:50:28;;;;;;;4.15;3.22;;;;;;;12.75;50.59;100996.69;1764526;81;21176;-84
2021/05/03 11:52:58;;;;;;;3.65;2.55;;;;;;;12.86;50.59;100995.59;1764565;81;21220;-84
2021/05/03 11:55:25;;;;;;;6.72;3.10;;;;;;;12.86;50.32;100997.32;1764588;81;21196;-83
2021/05/03 11:57:53;;;;;;;6.65;4.60;;;;;;;12.73;50.23;100993.13;1764773;81;21186;-83
2021/05/03 12:00:26;;;;;;;6.08;4.20;;;;;;;12.64;50.45;100984.58;1764611;81;22811;-84
2021/05/03 12:03:06;;;;;;;3.72;2.72;;;;;;;12.59;50.50;100994.59;1764614;81;21177;-84
2021/05/03 12:05:34;;;;;;;5.80;2.72;;;;;;;12.53;50.35;100993.16;1764633;81;21169;-84
2021/05/03 12:08:15;;;;;;;6.92;3.17;;;;;;;12.45;50.33;100995.20;1764583;81;21607;-85
2021/05/03 12:10:42;;;;;;;6.70;5.45;;;;;;;12.41;50.67;100992.03;1764366;79;21209;-84
2021/05/03 12:13:19;;;;;;;7.75;4.25;;;;;;;12.37;50.56;100999.44;1764596;81;21904;-84
2021/05/03 12:15:46;;;;;;;8.25;5.35;;;;;;;12.34;51.00;100994.08;1764398;81;21177;-84
2021/05/03 12:18:21;;;;;;;8.13;5.25;;;;;;;12.38;51.37;101001.20;1764393;79;21266;-84
2021/05/03 12:20:48;;;;;;;8.63;5.45;;;;;;;12.39;51.67;101004.75;1793765;79;21646;-82
2021/05/03 12:23:16;;;;;;;7.05;3.72;;;;;;;12.36;51.76;101027.99;1756058;81;21157;-83
2021/05/03 12:28:15;;;;;;;7.20;5.62;;;;;;;12.15;51.97;101043.36;1753533;81;21244;-83
2021/05/03 12:30:43;;;;;;;30.90;21.25;;;;;;;11.89;52.35;101051.94;1747545;81;21225;-83
2021/05/03 12:33:12;;;;;;;26.55;19.40;;;;;;;11.67;53.11;101049.67;1748375;81;21186;-83
2021/05/03 12:35:40;;;;;;;24.27;16.37;;;;;;;11.38;53.47;101030.45;1748351;82;21228;-82